createdAt,value
2022-11-24T00:04:45.964Z,4.28
2022-11-24T00:10:06.985Z,3.90
2022-11-24T00:15:27.851Z,5.68
2022-11-24T00:20:54.437Z,4.97
2022-11-24T00:26:20.534Z,5.63
2022-11-24T00:31:42.037Z,5.47
2022-11-24T00:37:02.490Z,4.75
2022-11-24T00:42:23.287Z,4.90
2022-11-24T00:47:43.682Z,6.30
2022-11-24T00:53:04.459Z,6.00
2022-11-24T00:58:25.386Z,6.03
2022-11-24T01:03:47.340Z,6.15
2022-11-24T01:09:07.902Z,6.35
2022-11-24T01:14:28.700Z,6.05
2022-11-24T01:19:49.191Z,6.88
2022-11-24T01:25:11.655Z,5.43
2022-11-24T01:30:32.189Z,6.85
2022-11-24T01:35:53.622Z,6.43
2022-11-24T01:41:17.563Z,7.13
2022-11-24T01:46:48.642Z,7.32
2022-11-24T01:52:15.871Z,6.70
2022-11-24T01:57:40.919Z,6.90
2022-11-24T02:03:01.794Z,7.75
2022-11-24T02:08:53.200Z,6.75
2022-11-24T02:14:18.008Z,8.70
2022-11-24T02:19:52.964Z,8.05
2022-11-24T02:30:40.253Z,7.88
2022-11-24T02:36:00.924Z,7.88
2022-11-24T02:41:25.197Z,9.18
2022-11-24T02:46:46.457Z,9.23
2022-11-24T02:52:07.232Z,9.80
2022-11-24T02:57:27.773Z,10.20
2022-11-24T03:02:48.126Z,9.13
2022-11-24T03:08:08.823Z,11.00
2022-11-24T03:13:29.601Z,9.77
2022-11-24T03:18:53.831Z,10.50
2022-11-24T03:24:14.416Z,10.30
2022-11-24T03:29:34.667Z,10.57
2022-11-24T03:34:55.096Z,10.65
2022-11-24T03:40:15.970Z,9.40
2022-11-24T03:45:52.386Z,11.10
2022-11-24T03:51:13.013Z,11.02
2022-11-24T03:56:33.614Z,10.05
2022-11-24T04:01:54.022Z,12.00
2022-11-24T04:07:14.876Z,11.07
2022-11-24T04:12:44.265Z,12.95
2022-11-24T04:18:04.916Z,10.85
2022-11-24T04:23:25.719Z,11.15
2022-11-24T04:28:46.217Z,12.57
2022-11-24T04:34:06.652Z,12.27
2022-11-24T04:39:28.581Z,11.48
2022-11-24T04:44:49.704Z,14.15
2022-11-24T04:50:10.420Z,12.23
2022-11-24T04:55:30.646Z,10.18
2022-11-24T05:00:51.357Z,11.63
2022-11-24T05:06:12.009Z,11.88
2022-11-24T05:11:34.056Z,12.23
2022-11-24T05:16:54.545Z,11.63
2022-11-24T05:22:15.214Z,11.73
2022-11-24T05:27:35.479Z,12.15
2022-11-24T05:32:57.014Z,10.77
2022-11-24T05:38:18.091Z,12.23
2022-11-24T05:43:38.871Z,13.07
2022-11-24T05:48:59.562Z,13.43
2022-11-24T05:54:19.959Z,11.10
2022-11-24T05:59:40.290Z,13.82
2022-11-24T06:05:00.817Z,12.40
2022-11-24T06:10:23.829Z,13.10
2022-11-24T06:15:44.227Z,12.75
2022-11-24T06:21:11.289Z,13.27
2022-11-24T06:26:32.647Z,13.50
2022-11-24T06:31:53.148Z,13.48
2022-11-24T06:37:13.900Z,13.23
2022-11-24T06:42:35.014Z,11.93
2022-11-24T06:47:56.587Z,13.32
2022-11-24T06:53:17.633Z,15.00
2022-11-24T06:58:43.150Z,14.07
2022-11-24T07:04:04.433Z,13.60
2022-11-24T07:09:24.674Z,14.60
2022-11-24T07:14:45.391Z,12.70
2022-11-24T07:20:07.241Z,11.15
2022-11-24T07:25:28.029Z,11.77
2022-11-24T07:30:48.390Z,11.90
2022-11-24T07:36:09.611Z,13.02
2022-11-24T07:41:30.279Z,12.75
2022-11-24T07:46:51.342Z,12.70
2022-11-24T07:52:11.878Z,12.30
2022-11-24T07:57:32.411Z,12.70
2022-11-24T08:02:53.555Z,12.77
2022-11-24T08:08:14.057Z,11.82
2022-11-24T08:13:35.944Z,11.20
2022-11-24T08:18:56.641Z,11.02
2022-11-24T08:24:17.498Z,13.15
2022-11-24T08:29:37.942Z,11.68
2022-11-24T08:35:13.043Z,10.65
2022-11-24T08:40:34.942Z,10.95
2022-11-24T08:46:00.358Z,10.60
2022-11-24T08:51:23.658Z,12.13
2022-11-24T08:56:44.842Z,10.85
2022-11-24T09:02:06.422Z,10.10
2022-11-24T09:07:27.525Z,9.93
2022-11-24T09:12:48.350Z,10.52
2022-11-24T09:18:09.178Z,10.88
2022-11-24T09:23:29.679Z,11.90
2022-11-24T09:28:54.236Z,9.63
2022-11-24T09:34:15.711Z,10.18
2022-11-24T09:39:36.519Z,9.23
2022-11-24T09:45:35.441Z,9.70
2022-11-24T09:51:03.578Z,9.77
2022-11-24T09:56:27.949Z,9.48
2022-11-24T10:01:50.411Z,8.63
2022-11-24T10:07:38.121Z,9.13
2022-11-24T10:13:30.317Z,8.82
2022-11-24T10:19:14.389Z,7.25
2022-11-24T10:25:03.255Z,6.35
2022-11-24T10:30:26.464Z,7.00
2022-11-24T10:35:53.252Z,7.47
2022-11-24T10:41:22.557Z,7.72
2022-11-24T10:46:43.626Z,7.10
2022-11-24T10:52:12.494Z,6.07
2022-11-24T10:57:36.025Z,4.63
2022-11-24T11:03:18.323Z,4.90
2022-11-24T11:08:38.722Z,5.68
2022-11-24T11:14:04.944Z,6.63
2022-11-24T11:20:01.777Z,6.70
2022-11-24T11:25:24.405Z,4.40
2022-11-24T11:31:17.878Z,5.00
2022-11-24T11:36:45.479Z,4.60
2022-11-24T11:42:53.897Z,3.83
2022-11-24T11:48:44.790Z,5.28
2022-11-24T11:54:08.419Z,6.18
2022-11-24T11:59:46.781Z,4.50
2022-11-24T12:05:28.824Z,4.13
2022-11-24T12:10:57.542Z,4.15
2022-11-24T12:16:39.744Z,4.95
2022-11-24T12:22:40.346Z,3.53
2022-11-24T12:28:00.986Z,4.30
2022-11-24T12:33:47.538Z,4.32
2022-11-24T12:39:20.223Z,4.20
2022-11-24T12:44:55.610Z,3.72
2022-11-24T12:50:18.542Z,4.00
2022-11-24T12:55:40.864Z,3.88
2022-11-24T13:01:28.384Z,3.25
2022-11-24T13:07:12.176Z,6.90
2022-11-24T13:12:33.047Z,3.83
2022-11-24T13:18:10.228Z,3.60
2022-11-24T13:23:32.364Z,2.85
2022-11-24T13:29:23.783Z,3.22
2022-11-24T13:34:45.808Z,3.35
2022-11-24T13:40:13.090Z,3.85
2022-11-24T13:45:39.700Z,3.88
2022-11-24T13:51:01.452Z,3.28
2022-11-24T13:56:25.280Z,3.35
2022-11-24T14:01:57.075Z,3.13
2022-11-24T14:07:17.615Z,3.30
2022-11-24T14:12:38.262Z,3.88
2022-11-24T14:17:58.917Z,3.30
2022-11-24T14:23:19.551Z,4.50
2022-11-24T14:28:40.954Z,3.55
2022-11-24T14:34:21.953Z,3.47
2022-11-24T14:39:43.078Z,3.50
2022-11-24T14:45:04.322Z,4.32
2022-11-24T14:50:24.898Z,4.13
2022-11-24T14:55:45.323Z,3.83
2022-11-24T15:01:27.635Z,3.63
2022-11-24T15:07:00.513Z,3.60
2022-11-24T15:12:28.725Z,4.30
2022-11-24T15:17:53.699Z,4.35
2022-11-24T15:23:33.205Z,4.77
2022-11-24T15:28:53.737Z,3.83
2022-11-24T15:34:14.549Z,4.70
2022-11-24T15:39:34.752Z,3.80
2022-11-24T15:44:55.454Z,3.70
2022-11-24T15:50:16.143Z,5.05
2022-11-24T15:55:36.617Z,5.32
2022-11-24T16:00:57.560Z,4.43
2022-11-24T16:06:24.647Z,4.65
2022-11-24T16:11:45.627Z,5.10
2022-11-24T16:17:06.322Z,4.55
2022-11-24T16:22:26.981Z,5.22
2022-11-24T16:27:47.583Z,5.78
2022-11-24T16:33:08.036Z,5.43
2022-11-24T16:38:28.453Z,5.93
2022-11-24T16:43:49.223Z,5.13
2022-11-24T16:49:10.231Z,5.32
2022-11-24T16:54:31.483Z,6.05
2022-11-24T16:59:52.001Z,5.60
2022-11-24T17:05:12.402Z,6.50
2022-11-24T17:10:32.818Z,5.53
2022-11-24T17:15:54.469Z,6.40
2022-11-24T17:21:17.555Z,7.22
2022-11-24T17:26:38.498Z,5.28
2022-11-24T17:31:58.876Z,5.93
2022-11-24T17:37:19.309Z,6.40
2022-11-24T17:42:39.934Z,6.30
2022-11-24T17:48:01.009Z,6.47
2022-11-24T17:53:21.697Z,6.90
2022-11-24T17:58:43.474Z,8.18
2022-11-24T18:04:04.541Z,5.93
2022-11-24T18:09:24.883Z,7.53
2022-11-24T18:14:45.808Z,6.75
2022-11-24T18:20:07.302Z,6.45
2022-11-24T18:25:28.053Z,6.18
2022-11-24T18:30:49.345Z,7.05
2022-11-24T18:36:13.635Z,6.35
2022-11-24T18:41:35.096Z,6.75
2022-11-24T18:46:55.747Z,6.53
2022-11-24T18:52:16.314Z,5.28
2022-11-24T18:57:36.965Z,7.00
2022-11-24T19:02:58.402Z,7.13
2022-11-24T19:08:18.869Z,6.85
2022-11-24T19:13:39.844Z,6.80
2022-11-24T19:19:02.427Z,7.68
2022-11-24T19:24:23.109Z,9.02
2022-11-24T19:29:44.031Z,10.38
2022-11-24T19:35:05.451Z,17.63
2022-11-24T19:40:26.002Z,14.45
2022-11-24T19:45:46.651Z,8.48
2022-11-24T19:51:11.765Z,7.15
2022-11-24T19:56:37.044Z,6.53
2022-11-24T20:01:58.021Z,6.95
2022-11-24T20:07:20.609Z,7.82
2022-11-24T20:12:41.055Z,7.32
2022-11-24T20:18:01.803Z,6.30
2022-11-24T20:23:22.524Z,7.82
2022-11-24T20:28:43.029Z,7.55
2022-11-24T20:34:05.158Z,7.75
2022-11-24T20:39:27.637Z,8.88
2022-11-24T20:44:47.966Z,7.85
2022-11-24T20:50:08.960Z,10.25
2022-11-24T20:55:31.843Z,8.07
2022-11-24T21:00:53.107Z,10.35
2022-11-24T21:06:14.286Z,9.43
2022-11-24T21:11:35.225Z,9.48
2022-11-24T21:16:55.665Z,8.98
2022-11-24T21:22:16.359Z,11.10
2022-11-24T21:27:37.148Z,12.43
2022-11-24T21:32:57.485Z,10.57
2022-11-24T21:38:18.002Z,10.48
2022-11-24T21:43:38.614Z,10.82
2022-11-24T21:48:59.613Z,13.68
2022-11-24T21:54:19.973Z,11.57
2022-11-24T21:59:40.776Z,11.82
2022-11-24T22:05:01.739Z,12.88
2022-11-24T22:10:22.102Z,13.88
2022-11-24T22:15:43.129Z,14.60
2022-11-24T22:21:05.250Z,13.88
2022-11-24T22:26:26.826Z,15.38
2022-11-24T22:31:47.322Z,16.13
2022-11-24T22:37:08.154Z,15.18
2022-11-24T22:42:28.607Z,15.27
2022-11-24T22:47:53.821Z,15.68
2022-11-24T22:53:14.316Z,16.90
2022-11-24T22:58:34.807Z,14.40
2022-11-24T23:03:55.634Z,18.02
2022-11-24T23:09:15.954Z,17.95
2022-11-24T23:14:36.750Z,16.40
2022-11-24T23:19:57.109Z,15.73
2022-11-24T23:25:17.450Z,15.23
2022-11-24T23:30:38.019Z,17.25
2022-11-24T23:36:02.701Z,18.42
2022-11-24T23:41:25.541Z,18.38
2022-11-24T23:46:45.917Z,15.38
2022-11-24T23:52:06.933Z,16.10
